Time;durP1;ratioP1;P1;durP2;ratioP2;P2;SDS_P1;SDS_P2;PMS_P1;PMS_P2;Temp;Humidity;BMP_temperature;BMP_pressure;BME280_temperature;BME280_humidity;BME280_pressure;Samples;Min_cycle;Max_cycle;Signal;HPM_P1;HPM_P2
2022/01/20 00:00:29;;;;;;;64.72;8.10;;;;;;;;;;5112212;28;20211;-69
2022/01/20 00:02:59;;;;;;;63.22;6.80;;;;;;;;;;5112449;28;20251;-69
2022/01/20 00:05:54;;;;;;;64.22;7.82;;;;;;;;;;5112273;28;20225;-69
2022/01/20 00:08:33;;;;;;;65.18;6.80;;;;;;;;;;5111832;28;20684;-69
2022/01/20 00:28:09;;;;;;;66.78;7.05;;;;;;;;;;5055503;28;20206;-69
2022/01/20 00:30:43;;;;;;;64.53;7.20;;;;;;;;;;5108199;27;20256;-69
2022/01/20 00:33:19;;;;;;;62.47;6.00;;;;;;;;;;5119059;27;20358;-69
2022/01/20 00:38:30;;;;;;;63.95;6.40;;;;;;;;;;5118872;28;20664;-69
2022/01/20 00:40:59;;;;;;;65.05;7.60;;;;;;;;;;5119029;27;20200;-69
2022/01/20 00:43:26;;;;;;;65.00;7.45;;;;;;;;;;5118889;27;20224;-69
2022/01/20 00:45:53;;;;;;;63.55;6.53;;;;;;;;;;5118647;27;20299;-69
2022/01/20 00:48:21;;;;;;;65.90;7.25;;;;;;;;;;5116361;27;20214;-69
2022/01/20 00:50:48;;;;;;;64.38;7.40;;;;;;;;;;5118636;27;20314;-69
2022/01/20 00:53:16;;;;;;;64.65;7.07;;;;;;;;;;5118739;28;20234;-69
2022/01/20 00:55:43;;;;;;;64.25;6.55;;;;;;;;;;5118933;27;20611;-69
2022/01/20 00:58:12;;;;;;;62.90;6.07;;;;;;;;;;5118399;27;20204;-69
2022/01/20 01:00:39;;;;;;;61.08;5.82;;;;;;;;;;5118671;27;20211;-69
2022/01/20 01:03:06;;;;;;;63.83;6.38;;;;;;;;;;5118380;27;20224;-69
2022/01/20 01:05:38;;;;;;;64.80;7.05;;;;;;;;;;5118605;27;20207;-69
2022/01/20 01:08:06;;;;;;;63.08;6.28;;;;;;;;;;5118410;27;20568;-69
2022/01/20 01:10:36;;;;;;;63.10;6.40;;;;;;;;;;5118701;27;20228;-69
2022/01/20 01:13:08;;;;;;;60.53;5.15;;;;;;;;;;5118284;27;20231;-69
2022/01/20 01:15:40;;;;;;;61.90;6.10;;;;;;;;;;5118407;27;20245;-69
2022/01/20 01:21:12;;;;;;;61.25;5.88;;;;;;;;;;5100495;28;20207;-69
2022/01/20 01:23:41;;;;;;;61.63;5.05;;;;;;;;;;5097947;28;20260;-69
2022/01/20 01:26:10;;;;;;;63.25;6.45;;;;;;;;;;5097744;28;20640;-69
2022/01/20 01:28:37;;;;;;;61.08;4.90;;;;;;;;;;5097906;28;20293;-69
2022/01/20 01:33:59;;;;;;;62.80;5.88;;;;;;;;;;5087007;28;20469;-69
2022/01/20 01:36:29;;;;;;;61.17;6.05;;;;;;;;;;5094061;28;20250;-69
2022/01/20 01:38:56;;;;;;;60.83;5.60;;;;;;;;;;5094455;28;20200;-69
2022/01/20 01:41:32;;;;;;;61.45;5.85;;;;;;;;;;5094713;28;20576;-69
2022/01/20 01:44:03;;;;;;;61.25;5.15;;;;;;;;;;5094562;28;20210;-69
2022/01/20 01:46:31;;;;;;;62.75;5.60;;;;;;;;;;5094518;28;20212;-69
2022/01/20 01:48:58;;;;;;;61.92;5.43;;;;;;;;;;5094051;28;20753;-69
2022/01/20 01:51:26;;;;;;;60.35;5.93;;;;;;;;;;5095852;28;20311;-69
2022/01/20 01:53:53;;;;;;;59.88;4.85;;;;;;;;;;5114778;28;20300;-69
2022/01/20 01:56:20;;;;;;;60.30;5.25;;;;;;;;;;5114789;28;20586;-69
2022/01/20 01:58:47;;;;;;;66.03;5.00;;;;;;;;;;5114372;28;20664;-69
2022/01/20 02:01:15;;;;;;;59.92;4.70;;;;;;;;;;5115214;28;20295;-69
2022/01/20 02:03:46;;;;;;;60.08;4.85;;;;;;;;;;5114166;28;20255;-69
2022/01/20 02:06:41;;;;;;;59.35;4.70;;;;;;;;;;5114876;28;20245;-69
2022/01/20 02:09:22;;;;;;;60.88;4.95;;;;;;;;;;5114260;28;20224;-69
2022/01/20 02:20:13;;;;;;;61.00;5.35;;;;;;;;;;5100965;28;20731;-69
2022/01/20 02:22:40;;;;;;;61.40;5.13;;;;;;;;;;5113948;28;20273;-69
2022/01/20 02:25:18;;;;;;;61.40;5.03;;;;;;;;;;5094144;28;20316;-69
2022/01/20 02:27:45;;;;;;;60.50;4.95;;;;;;;;;;5094172;28;20209;-69
2022/01/20 02:30:13;;;;;;;60.00;4.80;;;;;;;;;;5093761;28;20776;-69
2022/01/20 02:32:40;;;;;;;60.35;5.20;;;;;;;;;;5093726;28;20224;-69
2022/01/20 02:35:09;;;;;;;60.15;4.50;;;;;;;;;;5093801;28;20295;-69
2022/01/20 02:37:39;;;;;;;60.05;4.72;;;;;;;;;;5093460;28;20208;-69
2022/01/20 02:40:30;;;;;;;59.33;4.30;;;;;;;;;;5093643;28;20205;-69
2022/01/20 02:45:42;;;;;;;59.65;4.50;;;;;;;;;;5093498;28;20302;-69
2022/01/20 02:48:09;;;;;;;59.70;4.55;;;;;;;;;;5093103;28;20227;-69
2022/01/20 02:50:36;;;;;;;59.08;4.40;;;;;;;;;;5093283;28;20221;-69
2022/01/20 02:53:05;;;;;;;60.63;4.85;;;;;;;;;;5092934;28;20615;-68
2022/01/20 02:55:32;;;;;;;60.65;5.20;;;;;;;;;;5095997;28;20200;-69
2022/01/20 02:57:59;;;;;;;59.28;4.30;;;;;;;;;;5113473;28;20204;-69
2022/01/20 03:00:26;;;;;;;60.33;4.78;;;;;;;;;;5113735;28;20204;-69
2022/01/20 03:02:55;;;;;;;60.70;4.70;;;;;;;;;;5113433;28;20724;-69
2022/01/20 03:05:22;;;;;;;59.67;4.78;;;;;;;;;;5113303;28;20575;-69
2022/01/20 03:07:49;;;;;;;59.95;4.20;;;;;;;;;;5113004;28;20302;-69
2022/01/20 03:10:18;;;;;;;59.92;4.65;;;;;;;;;;5113472;27;20686;-69
2022/01/20 03:12:45;;;;;;;61.55;4.63;;;;;;;;;;5113311;28;20311;-69
2022/01/20 03:15:12;;;;;;;59.80;4.07;;;;;;;;;;5113309;28;20743;-68
2022/01/20 03:17:40;;;;;;;59.25;4.35;;;;;;;;;;5112950;28;20696;-68
2022/01/20 03:20:07;;;;;;;59.95;4.45;;;;;;;;;;5113080;28;20643;-69
2022/01/20 03:22:34;;;;;;;59.80;4.35;;;;;;;;;;5113060;28;20662;-69
2022/01/20 03:25:02;;;;;;;60.30;4.55;;;;;;;;;;5113167;28;20295;-69
2022/01/20 03:27:30;;;;;;;59.42;4.93;;;;;;;;;;5110929;28;20208;-69
2022/01/20 03:29:57;;;;;;;61.67;4.43;;;;;;;;;;5113027;28;20215;-69
2022/01/20 03:32:24;;;;;;;59.33;4.40;;;;;;;;;;5112680;28;20315;-69
2022/01/20 03:34:51;;;;;;;59.85;4.95;;;;;;;;;;5112806;28;20677;-69
2022/01/20 03:37:19;;;;;;;59.13;4.30;;;;;;;;;;5112626;28;20210;-69
2022/01/20 03:39:46;;;;;;;59.72;5.00;;;;;;;;;;5112954;28;20214;-69
2022/01/20 03:42:13;;;;;;;60.60;5.05;;;;;;;;;;5112769;28;20227;-69
2022/01/20 03:44:42;;;;;;;59.70;4.70;;;;;;;;;;5112826;28;20642;-69
2022/01/20 03:47:10;;;;;;;59.80;5.20;;;;;;;;;;5112422;28;20215;-69
2022/01/20 03:49:50;;;;;;;59.65;4.43;;;;;;;;;;5112811;28;20209;-69
2022/01/20 03:52:17;;;;;;;65.60;4.88;;;;;;;;;;5112420;28;20232;-69
2022/01/20 03:54:44;;;;;;;60.22;5.05;;;;;;;;;;5112624;28;20205;-69
2022/01/20 03:57:11;;;;;;;60.30;5.10;;;;;;;;;;5112321;28;20306;-69
2022/01/20 03:59:38;;;;;;;60.38;5.32;;;;;;;;;;5110003;28;20207;-69
2022/01/20 04:02:07;;;;;;;59.97;4.80;;;;;;;;;;5112422;28;20221;-69
2022/01/20 04:04:34;;;;;;;61.17;4.90;;;;;;;;;;5112287;28;20295;-69
2022/01/20 04:07:01;;;;;;;60.85;4.82;;;;;;;;;;5112429;28;20303;-69
2022/01/20 04:09:28;;;;;;;60.40;5.28;;;;;;;;;;5112236;28;20287;-69
2022/01/20 04:11:55;;;;;;;61.97;5.57;;;;;;;;;;5112543;28;20228;-69
2022/01/20 04:14:25;;;;;;;61.45;5.80;;;;;;;;;;5112068;28;20236;-69
2022/01/20 04:17:02;;;;;;;60.72;5.13;;;;;;;;;;5112371;28;20246;-69
2022/01/20 04:19:32;;;;;;;60.33;5.22;;;;;;;;;;5112387;28;20684;-69
2022/01/20 04:22:00;;;;;;;61.05;5.78;;;;;;;;;;5112181;28;20733;-69
2022/01/20 04:24:27;;;;;;;61.25;5.38;;;;;;;;;;5112486;28;20204;-69
2022/01/20 04:26:54;;;;;;;60.30;5.18;;;;;;;;;;5112332;28;20294;-69
2022/01/20 04:29:22;;;;;;;62.28;6.60;;;;;;;;;;5112292;28;20211;-69
2022/01/20 04:31:50;;;;;;;59.97;5.57;;;;;;;;;;5099519;28;20232;-69
2022/01/20 04:34:17;;;;;;;63.83;6.20;;;;;;;;;;5091833;28;20209;-69
2022/01/20 04:36:48;;;;;;;61.15;5.70;;;;;;;;;;5091866;28;20639;-69
2022/01/20 04:39:18;;;;;;;61.47;5.80;;;;;;;;;;5091280;28;20205;-69
2022/01/20 04:41:45;;;;;;;60.85;5.55;;;;;;;;;;5091906;28;20257;-69
2022/01/20 04:44:18;;;;;;;60.60;5.40;;;;;;;;;;5091526;28;20205;-69
2022/01/20 04:46:52;;;;;;;64.82;6.30;;;;;;;;;;5091742;28;20208;-69
2022/01/20 04:57:31;;;;;;;60.88;5.22;;;;;;;;;;5091419;28;20220;-69
2022/01/20 04:59:58;;;;;;;61.25;5.90;;;;;;;;;;5091467;28;20686;-69
2022/01/20 05:02:28;;;;;;;61.05;5.50;;;;;;;;;;5090619;28;20223;-69
2022/01/20 05:04:55;;;;;;;61.95;5.25;;;;;;;;;;5091736;28;20212;-69
2022/01/20 05:07:26;;;;;;;59.90;5.20;;;;;;;;;;5091429;28;20300;-69
2022/01/20 05:09:56;;;;;;;61.45;6.03;;;;;;;;;;5092216;28;20251;-69
2022/01/20 05:12:29;;;;;;;60.85;5.95;;;;;;;;;;5103368;28;20293;-69
2022/01/20 05:14:56;;;;;;;61.45;5.38;;;;;;;;;;5105469;28;20235;-69
2022/01/20 05:17:24;;;;;;;61.35;5.20;;;;;;;;;;5116421;28;20268;-68
2022/01/20 05:19:51;;;;;;;61.45;5.15;;;;;;;;;;5116327;28;20436;-69
2022/01/20 05:22:18;;;;;;;61.88;5.57;;;;;;;;;;5116600;28;20232;-69
2022/01/20 05:24:46;;;;;;;61.45;5.50;;;;;;;;;;5116841;28;20204;-69
2022/01/20 05:27:13;;;;;;;60.50;5.47;;;;;;;;;;5117694;28;20205;-69
2022/01/20 05:29:41;;;;;;;60.20;5.40;;;;;;;;;;5115395;28;20231;-69
2022/01/20 05:32:08;;;;;;;60.63;5.20;;;;;;;;;;5096774;28;20232;-69
2022/01/20 05:34:35;;;;;;;62.17;5.30;;;;;;;;;;5103232;28;20236;-69
2022/01/20 05:37:02;;;;;;;60.80;5.45;;;;;;;;;;5115155;28;20214;-69
2022/01/20 05:39:30;;;;;;;60.95;5.00;;;;;;;;;;5114886;27;20205;-69
2022/01/20 05:41:59;;;;;;;60.25;5.20;;;;;;;;;;5114939;28;20311;-69
2022/01/20 05:44:26;;;;;;;62.65;5.88;;;;;;;;;;5115240;28;20292;-69
2022/01/20 05:46:54;;;;;;;60.30;5.30;;;;;;;;;;5115795;28;20211;-69
2022/01/20 05:49:21;;;;;;;63.17;5.80;;;;;;;;;;5114733;28;20203;-70
2022/01/20 05:51:49;;;;;;;61.33;4.85;;;;;;;;;;5114838;28;20604;-69
2022/01/20 05:54:17;;;;;;;60.47;5.40;;;;;;;;;;5114638;28;20200;-69
2022/01/20 05:56:44;;;;;;;61.55;4.45;;;;;;;;;;5115006;28;20295;-69
2022/01/20 05:59:12;;;;;;;61.53;5.50;;;;;;;;;;5114498;28;20294;-69
2022/01/20 06:01:40;;;;;;;60.67;4.63;;;;;;;;;;5114581;28;20202;-69
2022/01/20 06:04:09;;;;;;;61.25;5.55;;;;;;;;;;5114284;28;20587;-69
2022/01/20 06:06:36;;;;;;;60.45;5.15;;;;;;;;;;5112972;28;20204;-69
2022/01/20 06:09:04;;;;;;;61.80;5.07;;;;;;;;;;5114261;28;20209;-69
2022/01/20 06:11:33;;;;;;;62.15;6.03;;;;;;;;;;5114508;28;20220;-69
2022/01/20 06:14:00;;;;;;;68.13;6.00;;;;;;;;;;5114376;28;20203;-69
2022/01/20 06:16:28;;;;;;;60.95;5.20;;;;;;;;;;5114551;28;20200;-69
2022/01/20 06:18:55;;;;;;;62.67;6.35;;;;;;;;;;5114597;28;20208;-69
2022/01/20 06:21:23;;;;;;;62.25;6.05;;;;;;;;;;5114258;28;20299;-69
2022/01/20 06:23:50;;;;;;;64.65;6.85;;;;;;;;;;5114559;28;20208;-69
2022/01/20 06:26:17;;;;;;;66.72;8.45;;;;;;;;;;5114388;28;20295;-69
2022/01/20 06:28:44;;;;;;;65.43;7.00;;;;;;;;;;5114044;28;20313;-69
2022/01/20 06:31:11;;;;;;;66.97;5.75;;;;;;;;;;5114186;28;20259;-69
2022/01/20 06:33:40;;;;;;;62.13;5.53;;;;;;;;;;5113990;28;20225;-69
2022/01/20 06:36:07;;;;;;;63.97;6.57;;;;;;;;;;5113897;28;20299;-67
2022/01/20 06:38:34;;;;;;;72.85;6.35;;;;;;;;;;5114003;28;20234;-67
2022/01/20 06:41:01;;;;;;;62.63;6.25;;;;;;;;;;5114151;28;20211;-67
2022/01/20 06:43:28;;;;;;;63.45;7.13;;;;;;;;;;5113914;28;20309;-69
2022/01/20 06:45:56;;;;;;;66.28;7.50;;;;;;;;;;5113855;28;20204;-69
2022/01/20 06:48:23;;;;;;;61.90;7.25;;;;;;;;;;5113413;28;20295;-69
2022/01/20 06:50:51;;;;;;;63.60;6.80;;;;;;;;;;5114064;28;20638;-69
2022/01/20 06:53:19;;;;;;;64.28;7.38;;;;;;;;;;5113674;28;20228;-69
2022/01/20 06:55:46;;;;;;;63.97;7.45;;;;;;;;;;5113674;27;20707;-69
2022/01/20 06:58:13;;;;;;;63.58;7.25;;;;;;;;;;5113311;28;20312;-69
2022/01/20 07:00:40;;;;;;;65.30;6.72;;;;;;;;;;5114037;28;20215;-69
2022/01/20 07:03:07;;;;;;;65.72;7.03;;;;;;;;;;5113270;28;20230;-69
2022/01/20 07:05:34;;;;;;;64.40;7.22;;;;;;;;;;5113415;28;20210;-69
2022/01/20 07:08:03;;;;;;;63.70;7.35;;;;;;;;;;5113111;28;20215;-69
2022/01/20 07:10:30;;;;;;;62.90;7.20;;;;;;;;;;5111986;28;20295;-69
2022/01/20 07:12:57;;;;;;;63.75;6.93;;;;;;;;;;5112835;28;20250;-68
2022/01/20 07:15:24;;;;;;;64.30;6.50;;;;;;;;;;5113141;28;20211;-68
2022/01/20 07:17:51;;;;;;;63.17;6.22;;;;;;;;;;5111421;28;20648;-68
2022/01/20 07:20:18;;;;;;;63.60;7.15;;;;;;;;;;5113297;28;20290;-68
2022/01/20 07:22:46;;;;;;;64.63;7.47;;;;;;;;;;5113064;28;20605;-68
2022/01/20 07:25:14;;;;;;;62.45;6.68;;;;;;;;;;5112895;28;20304;-68
2022/01/20 07:27:41;;;;;;;63.47;7.15;;;;;;;;;;5112676;28;20211;-68
2022/01/20 07:30:09;;;;;;;62.70;6.53;;;;;;;;;;5112875;28;20290;-68
2022/01/20 07:32:38;;;;;;;64.30;6.75;;;;;;;;;;5111323;27;20226;-68
2022/01/20 07:35:05;;;;;;;64.95;6.25;;;;;;;;;;5112732;28;20205;-68
2022/01/20 07:37:33;;;;;;;64.13;7.35;;;;;;;;;;5112599;28;20299;-68
2022/01/20 07:40:00;;;;;;;67.90;7.13;;;;;;;;;;5112886;27;20206;-68
2022/01/20 07:42:28;;;;;;;68.47;6.35;;;;;;;;;;5112708;27;20224;-68
2022/01/20 07:44:56;;;;;;;61.75;5.95;;;;;;;;;;5112675;28;20242;-68
2022/01/20 07:47:23;;;;;;;62.38;7.10;;;;;;;;;;5111717;28;20200;-68
2022/01/20 07:49:50;;;;;;;62.80;5.65;;;;;;;;;;5095914;28;20295;-68
2022/01/20 07:52:17;;;;;;;62.58;5.97;;;;;;;;;;5092212;28;20231;-68
2022/01/20 07:54:45;;;;;;;65.97;6.40;;;;;;;;;;5092199;28;20201;-68
2022/01/20 07:57:12;;;;;;;65.22;7.22;;;;;;;;;;5092310;28;20299;-68
2022/01/20 07:59:40;;;;;;;62.50;6.38;;;;;;;;;;5092441;28;20209;-68
2022/01/20 08:02:07;;;;;;;65.63;7.13;;;;;;;;;;5092340;28;20232;-68
2022/01/20 08:04:35;;;;;;;65.50;7.25;;;;;;;;;;5092101;28;20300;-66
2022/01/20 08:07:02;;;;;;;64.70;6.18;;;;;;;;;;5091949;28;20211;-66
2022/01/20 08:09:29;;;;;;;65.57;6.47;;;;;;;;;;5091814;28;20209;-68
2022/01/20 08:11:56;;;;;;;62.92;6.65;;;;;;;;;;5092117;28;20258;-69
2022/01/20 08:14:25;;;;;;;62.30;6.30;;;;;;;;;;5092158;28;20213;-68
2022/01/20 08:16:53;;;;;;;69.57;6.25;;;;;;;;;;5091882;28;20660;-66
2022/01/20 08:19:20;;;;;;;61.25;6.10;;;;;;;;;;5090616;28;20295;-69
2022/01/20 08:21:48;;;;;;;61.97;5.85;;;;;;;;;;5091800;28;20735;-68
2022/01/20 08:24:15;;;;;;;63.55;5.85;;;;;;;;;;5091496;28;20219;-68
2022/01/20 08:26:42;;;;;;;62.85;5.10;;;;;;;;;;5092360;28;20208;-69
2022/01/20 08:29:09;;;;;;;62.95;5.68;;;;;;;;;;5091694;28;20209;-68
2022/01/20 08:31:36;;;;;;;61.15;5.90;;;;;;;;;;5091808;28;20558;-68
2022/01/20 08:34:05;;;;;;;65.13;5.70;;;;;;;;;;5091526;28;20227;-68
2022/01/20 08:36:32;;;;;;;69.22;5.18;;;;;;;;;;5091644;28;20211;-68
2022/01/20 08:38:59;;;;;;;63.13;5.55;;;;;;;;;;5091359;28;20313;-69
2022/01/20 08:41:26;;;;;;;64.13;6.35;;;;;;;;;;5091966;28;20300;-68
2022/01/20 08:43:53;;;;;;;63.70;5.78;;;;;;;;;;5092079;28;20201;-68
2022/01/20 08:46:21;;;;;;;68.40;7.00;;;;;;;;;;5095885;28;20205;-67
2022/01/20 08:48:49;;;;;;;64.07;7.18;;;;;;;;;;5095597;28;20209;-67
2022/01/20 08:51:17;;;;;;;65.70;6.20;;;;;;;;;;5095615;28;20211;-67
2022/01/20 08:53:44;;;;;;;59.67;4.97;;;;;;;;;;5094131;28;20233;-67
2022/01/20 08:56:12;;;;;;;63.97;5.25;;;;;;;;;;5095795;28;20204;-67
2022/01/20 08:58:39;;;;;;;65.35;5.97;;;;;;;;;;5095250;28;20208;-67
2022/01/20 09:01:07;;;;;;;62.75;5.50;;;;;;;;;;5095599;28;20300;-67
2022/01/20 09:03:35;;;;;;;64.35;5.60;;;;;;;;;;5095304;28;20224;-67
2022/01/20 09:06:03;;;;;;;64.20;5.28;;;;;;;;;;5095226;28;20315;-67
2022/01/20 09:08:31;;;;;;;62.55;5.30;;;;;;;;;;5094976;28;20224;-67
2022/01/20 09:10:58;;;;;;;64.80;5.70;;;;;;;;;;5095526;28;20484;-66
2022/01/20 09:16:10;;;;;;;62.75;4.97;;;;;;;;;;5095324;28;20207;-67
2022/01/20 09:18:37;;;;;;;62.85;5.15;;;;;;;;;;5094608;28;20300;-67
2022/01/20 09:21:04;;;;;;;61.90;5.70;;;;;;;;;;5095305;28;20239;-66
2022/01/20 09:23:33;;;;;;;66.15;4.45;;;;;;;;;;5095025;28;20217;-67
2022/01/20 09:26:00;;;;;;;69.43;5.57;;;;;;;;;;5115429;28;20214;-67
2022/01/20 09:28:28;;;;;;;64.22;4.85;;;;;;;;;;5115024;28;20680;-67
2022/01/20 09:30:58;;;;;;;60.85;4.38;;;;;;;;;;5115179;28;20200;-67
2022/01/20 09:33:27;;;;;;;63.25;4.95;;;;;;;;;;5115213;28;20228;-67
2022/01/20 09:35:55;;;;;;;65.65;5.20;;;;;;;;;;5115107;28;20247;-67
2022/01/20 09:38:22;;;;;;;70.65;5.28;;;;;;;;;;5115008;28;20205;-67
2022/01/20 09:40:50;;;;;;;61.17;4.93;;;;;;;;;;5114932;28;20295;-67
2022/01/20 09:43:18;;;;;;;61.67;4.78;;;;;;;;;;5114642;27;20224;-67
2022/01/20 09:45:46;;;;;;;59.65;4.38;;;;;;;;;;5114743;28;20211;-67
2022/01/20 09:48:15;;;;;;;62.63;4.65;;;;;;;;;;5114718;28;20212;-67
2022/01/20 09:50:42;;;;;;;63.28;5.07;;;;;;;;;;5114844;28;20290;-68
2022/01/20 09:53:09;;;;;;;65.88;6.10;;;;;;;;;;5114762;27;20224;-68
2022/01/20 09:55:36;;;;;;;64.15;5.28;;;;;;;;;;5112229;28;20708;-68
2022/01/20 09:58:05;;;;;;;61.85;5.25;;;;;;;;;;5114283;28;20208;-68
2022/01/20 10:00:32;;;;;;;64.90;5.70;;;;;;;;;;5114849;28;20231;-68
2022/01/20 10:03:01;;;;;;;70.53;5.47;;;;;;;;;;5114502;28;20217;-68
2022/01/20 10:05:33;;;;;;;65.90;5.60;;;;;;;;;;5114661;28;20230;-68
2022/01/20 10:08:01;;;;;;;65.55;5.45;;;;;;;;;;5114332;27;20234;-68
2022/01/20 10:10:37;;;;;;;66.25;5.88;;;;;;;;;;5114932;28;20295;-68
2022/01/20 10:13:06;;;;;;;68.72;5.47;;;;;;;;;;5114606;28;20258;-68
2022/01/20 10:15:34;;;;;;;70.18;5.40;;;;;;;;;;5114211;28;20269;-67
2022/01/20 10:18:08;;;;;;;69.72;6.10;;;;;;;;;;5114152;28;20635;-66
2022/01/20 10:20:35;;;;;;;67.45;6.07;;;;;;;;;;5114330;28;20207;-67
2022/01/20 10:23:02;;;;;;;62.35;5.30;;;;;;;;;;5113981;28;20235;-66
2022/01/20 10:25:34;;;;;;;76.43;5.80;;;;;;;;;;5114444;28;20208;-66
2022/01/20 10:28:02;;;;;;;61.90;5.10;;;;;;;;;;5114118;28;20242;-66
2022/01/20 10:30:31;;;;;;;62.55;5.07;;;;;;;;;;5114160;28;20206;-67
2022/01/20 10:33:00;;;;;;;62.15;4.80;;;;;;;;;;5113723;28;20338;-67
2022/01/20 10:35:28;;;;;;;62.47;5.80;;;;;;;;;;5113942;28;20299;-67
2022/01/20 10:37:59;;;;;;;65.50;6.10;;;;;;;;;;5113647;28;20206;-69
2022/01/20 10:40:26;;;;;;;62.20;5.75;;;;;;;;;;5113975;28;20711;-67
2022/01/20 10:42:54;;;;;;;61.65;5.68;;;;;;;;;;5113621;28;20311;-67
2022/01/20 10:45:22;;;;;;;66.57;5.80;;;;;;;;;;5113868;28;20215;-67
2022/01/20 10:47:52;;;;;;;64.07;5.90;;;;;;;;;;5113467;28;20208;-66
2022/01/20 10:50:23;;;;;;;66.53;6.28;;;;;;;;;;5113674;28;20251;-67
2022/01/20 10:52:50;;;;;;;64.93;6.38;;;;;;;;;;5112988;28;20281;-68
2022/01/20 10:55:23;;;;;;;64.32;5.60;;;;;;;;;;5113247;28;20243;-67
2022/01/20 10:57:50;;;;;;;66.32;6.10;;;;;;;;;;5112685;28;20200;-68
2022/01/20 11:00:19;;;;;;;73.15;5.93;;;;;;;;;;5112290;28;20346;-67
2022/01/20 11:02:51;;;;;;;64.53;5.40;;;;;;;;;;5112278;28;20636;-69
2022/01/20 11:05:18;;;;;;;63.25;5.13;;;;;;;;;;5113274;28;20204;-67
2022/01/20 11:07:46;;;;;;;66.80;5.57;;;;;;;;;;5112986;28;20247;-66
2022/01/20 11:10:13;;;;;;;65.38;5.68;;;;;;;;;;5112337;28;20203;-68
2022/01/20 11:12:41;;;;;;;63.03;4.88;;;;;;;;;;5111864;28;20825;-67
2022/01/20 11:15:10;;;;;;;67.70;5.50;;;;;;;;;;5112677;28;20237;-67
2022/01/20 11:17:40;;;;;;;63.00;6.05;;;;;;;;;;5113030;28;20200;-69
2022/01/20 11:20:10;;;;;;;62.22;5.43;;;;;;;;;;5112970;28;20200;-68
2022/01/20 11:22:38;;;;;;;68.90;5.80;;;;;;;;;;5112390;27;20310;-69
2022/01/20 11:25:06;;;;;;;62.95;6.35;;;;;;;;;;5112777;28;20214;-69
2022/01/20 11:27:38;;;;;;;59.97;4.78;;;;;;;;;;5112251;28;20291;-69
2022/01/20 11:30:15;;;;;;;62.83;4.90;;;;;;;;;;5113253;27;20279;-69
2022/01/20 11:32:42;;;;;;;62.38;5.18;;;;;;;;;;5111934;28;20224;-69
2022/01/20 11:35:13;;;;;;;63.15;6.63;;;;;;;;;;5112907;28;20215;-70
2022/01/20 11:37:43;;;;;;;62.20;5.82;;;;;;;;;;5112663;28;20210;-70
2022/01/20 11:40:12;;;;;;;63.72;5.43;;;;;;;;;;5112296;28;20204;-69
2022/01/20 11:42:39;;;;;;;64.47;5.60;;;;;;;;;;5112534;28;20228;-70
2022/01/20 11:45:26;;;;;;;61.75;5.15;;;;;;;;;;5112897;28;20226;-70
2022/01/20 11:47:53;;;;;;;63.75;4.90;;;;;;;;;;5112120;28;20243;-69
2022/01/20 11:50:22;;;;;;;70.65;5.63;;;;;;;;;;5112064;28;20210;-70
2022/01/20 11:52:49;;;;;;;61.60;5.10;;;;;;;;;;5112101;28;20311;-70
2022/01/20 11:55:18;;;;;;;61.05;4.40;;;;;;;;;;5112229;28;20528;-69
2022/01/20 11:57:45;;;;;;;63.17;4.95;;;;;;;;;;5111771;28;20731;-69
2022/01/20 12:00:20;;;;;;;61.47;4.38;;;;;;;;;;5112874;28;20268;-68
2022/01/20 12:02:48;;;;;;;61.60;5.07;;;;;;;;;;5112489;28;20231;-72
2022/01/20 12:05:19;;;;;;;64.60;5.07;;;;;;;;;;5112651;28;20212;-73
2022/01/20 12:07:49;;;;;;;64.13;5.55;;;;;;;;;;5112363;28;20262;-69
2022/01/20 12:10:18;;;;;;;64.60;5.00;;;;;;;;;;5114296;28;20200;-73
2022/01/20 12:12:45;;;;;;;60.55;4.00;;;;;;;;;;5113074;28;20795;-72
2022/01/20 12:15:14;;;;;;;58.75;3.45;;;;;;;;;;5112358;28;20260;-73
2022/01/20 12:17:42;;;;;;;58.65;3.00;;;;;;;;;;5111873;28;20664;-70
2022/01/20 12:20:12;;;;;;;60.85;3.70;;;;;;;;;;5112178;28;20588;-72
2022/01/20 12:22:42;;;;;;;59.80;3.50;;;;;;;;;;5112174;28;20228;-75
2022/01/20 12:25:15;;;;;;;59.65;4.07;;;;;;;;;;5112493;28;20239;-75
2022/01/20 12:27:42;;;;;;;72.30;5.18;;;;;;;;;;5112106;28;20208;-74
2022/01/20 12:30:17;;;;;;;61.15;4.57;;;;;;;;;;5112430;28;20644;-73
2022/01/20 12:32:44;;;;;;;60.10;3.65;;;;;;;;;;5112332;28;20219;-69
2022/01/20 12:35:12;;;;;;;63.38;4.88;;;;;;;;;;5112322;28;20591;-73
2022/01/20 12:37:40;;;;;;;61.60;3.80;;;;;;;;;;5112088;28;20204;-69
2022/01/20 12:40:08;;;;;;;59.28;3.50;;;;;;;;;;5112024;28;20295;-69
2022/01/20 12:42:41;;;;;;;59.17;3.58;;;;;;;;;;5111872;28;20224;-69
2022/01/20 12:47:50;;;;;;;63.80;3.80;;;;;;;;;;5091105;28;20192;-71
2022/01/20 12:50:17;;;;;;;61.45;3.60;;;;;;;;;;5091779;28;20208;-70
2022/01/20 12:52:47;;;;;;;59.15;3.72;;;;;;;;;;5091604;28;20228;-70
2022/01/20 12:55:14;;;;;;;64.05;4.40;;;;;;;;;;5091355;28;20232;-70
2022/01/20 12:57:43;;;;;;;70.85;4.00;;;;;;;;;;5091600;28;20215;-70
2022/01/20 13:00:10;;;;;;;59.17;4.22;;;;;;;;;;5091749;28;20227;-71
2022/01/20 13:02:38;;;;;;;64.10;4.32;;;;;;;;;;5091443;28;20317;-71
2022/01/20 13:05:06;;;;;;;62.40;4.20;;;;;;;;;;5091480;28;20197;-71
2022/01/20 13:07:37;;;;;;;60.03;3.83;;;;;;;;;;5091075;28;20223;-70
2022/01/20 13:10:20;;;;;;;63.45;4.50;;;;;;;;;;5091918;28;20677;-70
2022/01/20 13:12:51;;;;;;;63.97;5.05;;;;;;;;;;5091282;28;20739;-70
2022/01/20 13:15:23;;;;;;;59.60;4.00;;;;;;;;;;5091533;28;20228;-71
2022/01/20 13:18:01;;;;;;;62.97;4.65;;;;;;;;;;5090141;28;20205;-70
2022/01/20 13:20:28;;;;;;;66.13;4.75;;;;;;;;;;5091640;28;20204;-70
2022/01/20 13:22:58;;;;;;;60.47;4.50;;;;;;;;;;5091281;28;20220;-70
2022/01/20 13:25:26;;;;;;;62.38;4.60;;;;;;;;;;5091579;28;20227;-70
2022/01/20 13:27:56;;;;;;;60.33;4.57;;;;;;;;;;5091370;28;20557;-70
2022/01/20 13:30:27;;;;;;;67.90;5.20;;;;;;;;;;5091257;28;20193;-70
2022/01/20 13:32:55;;;;;;;61.97;5.35;;;;;;;;;;5094730;28;20656;-70
2022/01/20 13:35:22;;;;;;;60.95;4.90;;;;;;;;;;5094976;28;20319;-70
2022/01/20 13:37:59;;;;;;;67.75;5.35;;;;;;;;;;5094743;28;20584;-70
2022/01/20 13:40:26;;;;;;;60.42;4.65;;;;;;;;;;5094925;28;20201;-70
2022/01/20 13:45:39;;;;;;;61.88;4.45;;;;;;;;;;5094845;28;20247;-70
2022/01/20 13:48:08;;;;;;;64.57;5.15;;;;;;;;;;5092949;28;20631;-70
2022/01/20 13:50:36;;;;;;;63.80;5.53;;;;;;;;;;5094775;28;20640;-70
2022/01/20 13:53:11;;;;;;;61.53;4.35;;;;;;;;;;5094870;28;20225;-70
2022/01/20 13:55:39;;;;;;;59.42;4.47;;;;;;;;;;5094319;28;20335;-70
2022/01/20 13:58:08;;;;;;;62.00;4.90;;;;;;;;;;5094336;28;20213;-70
2022/01/20 14:00:38;;;;;;;67.67;5.70;;;;;;;;;;5093600;28;20456;-70
2022/01/20 14:03:07;;;;;;;63.00;4.95;;;;;;;;;;5094273;28;20474;-69
2022/01/20 14:05:34;;;;;;;67.22;5.47;;;;;;;;;;5094362;28;20232;-69
2022/01/20 14:08:02;;;;;;;61.03;5.03;;;;;;;;;;5093840;28;20303;-68
2022/01/20 14:10:30;;;;;;;62.97;4.57;;;;;;;;;;5095589;28;20207;-70
2022/01/20 14:12:57;;;;;;;61.63;4.85;;;;;;;;;;5094751;28;20239;-70
2022/01/20 14:15:26;;;;;;;76.03;5.50;;;;;;;;;;5094406;28;20285;-68
2022/01/20 14:17:56;;;;;;;61.13;5.55;;;;;;;;;;5095171;28;20205;-69
2022/01/20 14:20:24;;;;;;;59.67;4.50;;;;;;;;;;5105880;28;20228;-70
2022/01/20 14:22:52;;;;;;;64.45;5.28;;;;;;;;;;5116034;28;20248;-70
2022/01/20 14:25:20;;;;;;;61.30;5.00;;;;;;;;;;5116954;28;20201;-69
2022/01/20 14:27:47;;;;;;;63.00;4.53;;;;;;;;;;5116239;28;20208;-69
2022/01/20 14:30:14;;;;;;;70.68;6.18;;;;;;;;;;5113077;28;20429;-71
2022/01/20 14:32:43;;;;;;;61.13;4.97;;;;;;;;;;5114462;28;20262;-70
2022/01/20 14:35:11;;;;;;;65.72;5.80;;;;;;;;;;5115371;28;20244;-70
2022/01/20 14:37:39;;;;;;;64.07;5.32;;;;;;;;;;5114021;28;20231;-70
2022/01/20 14:40:07;;;;;;;64.30;5.80;;;;;;;;;;5112729;28;20231;-70
2022/01/20 14:42:34;;;;;;;64.10;5.78;;;;;;;;;;5111744;28;20256;-70
2022/01/20 14:45:02;;;;;;;70.85;6.70;;;;;;;;;;5112299;28;20591;-70
2022/01/20 14:47:29;;;;;;;62.08;6.10;;;;;;;;;;5111803;28;20236;-70
2022/01/20 14:49:57;;;;;;;69.50;6.78;;;;;;;;;;5112002;28;20216;-70
2022/01/20 14:52:24;;;;;;;61.53;6.22;;;;;;;;;;5112200;28;20220;-71
2022/01/20 14:54:51;;;;;;;68.93;6.45;;;;;;;;;;5113059;28;20251;-70
2022/01/20 14:57:20;;;;;;;63.60;5.53;;;;;;;;;;5113701;28;20238;-70
2022/01/20 14:59:47;;;;;;;67.15;5.93;;;;;;;;;;5113701;28;20212;-70
2022/01/20 15:02:14;;;;;;;64.30;4.95;;;;;;;;;;5113878;28;20319;-71
2022/01/20 15:04:41;;;;;;;67.10;6.07;;;;;;;;;;5113783;28;20634;-70
2022/01/20 15:07:10;;;;;;;64.45;6.50;;;;;;;;;;5101228;28;20288;-70
2022/01/20 15:09:37;;;;;;;63.00;5.85;;;;;;;;;;5093188;28;20292;-70
2022/01/20 15:12:07;;;;;;;69.78;6.30;;;;;;;;;;5093123;28;20259;-70
2022/01/20 15:14:34;;;;;;;63.38;5.55;;;;;;;;;;5092962;28;20216;-71
2022/01/20 15:17:02;;;;;;;64.22;4.88;;;;;;;;;;5093127;28;20232;-70
2022/01/20 15:19:29;;;;;;;62.00;5.50;;;;;;;;;;5092867;28;20288;-71
2022/01/20 15:21:56;;;;;;;61.05;5.88;;;;;;;;;;5093025;28;20256;-70
2022/01/20 15:24:25;;;;;;;62.20;5.22;;;;;;;;;;5093099;28;20264;-70
2022/01/20 15:26:53;;;;;;;67.15;6.65;;;;;;;;;;5093208;28;20208;-70
2022/01/20 15:29:20;;;;;;;65.32;8.38;;;;;;;;;;5093019;28;20268;-70
2022/01/20 15:31:47;;;;;;;64.80;5.55;;;;;;;;;;5093251;28;20315;-70